Terminal Aerodrome Forecast
Issued by NWS Newport/Morehead City, NC

Home | Current Version | Previous Version | Text Only | Print | Product List | Glossary On
Versions: 1 2 3 4 5 6 7 8 9 10 11 12
781
FTUS42 KMHX 181720
TAFEWN
TAF
KEWN 181720Z 1818/1918 23009KT P6SM SKC
     FM190300 22006KT P6SM BKN070
     FM191000 26005KT P6SM SCT070=

USA.gov is the U.S. government's official web portal to all federal, state and local government web resources and services.